Time;durP1;ratioP1;P1;durP2;ratioP2;P2;SDS_P1;SDS_P2;PMS_P1;PMS_P2;Temp;Humidity;BMP_temperature;BMP_pressure;BME280_temperature;BME280_humidity;BME280_pressure;Samples;Min_cycle;Max_cycle;Signal;HPM_P1;HPM_P2
2022/01/22 00:01:10;;;;;;;1.77;0.75;;;;;;;;;;5064667;28;20027;-60
2022/01/22 00:03:37;;;;;;;2.13;1.23;;;;;;;;;;5058503;28;20037;-60
2022/01/22 00:06:04;;;;;;;2.67;0.80;;;;;;;;;;5062956;28;20017;-60
2022/01/22 00:08:30;;;;;;;2.90;1.60;;;;;;;;;;5064236;28;20029;-60
2022/01/22 00:10:56;;;;;;;1.48;1.05;;;;;;;;;;5056856;28;20436;-60
2022/01/22 00:16:07;;;;;;;2.45;1.10;;;;;;;;;;5055854;28;20117;-60
2022/01/22 00:18:33;;;;;;;2.25;1.10;;;;;;;;;;5070200;28;20415;-60
2022/01/22 00:20:59;;;;;;;2.15;1.15;;;;;;;;;;5075575;28;20066;-60
2022/01/22 00:23:27;;;;;;;2.30;0.90;;;;;;;;;;5063456;28;20118;-60
2022/01/22 00:25:54;;;;;;;2.33;1.10;;;;;;;;;;5055840;28;20100;-60
2022/01/22 00:28:20;;;;;;;1.40;0.90;;;;;;;;;;5055034;28;20033;-60
2022/01/22 00:30:46;;;;;;;2.40;0.98;;;;;;;;;;5055587;28;20021;-60
2022/01/22 00:33:12;;;;;;;2.88;1.13;;;;;;;;;;5064891;28;20055;-60
2022/01/22 00:35:38;;;;;;;1.63;0.90;;;;;;;;;;5074896;28;20418;-60
2022/01/22 00:38:04;;;;;;;1.20;0.82;;;;;;;;;;5060263;28;20558;-60
2022/01/22 00:40:30;;;;;;;2.42;0.98;;;;;;;;;;5054849;28;20052;-60
2022/01/22 00:42:56;;;;;;;1.45;0.82;;;;;;;;;;5061947;28;20465;-60
2022/01/22 00:45:22;;;;;;;2.42;1.40;;;;;;;;;;5074785;28;20028;-60
2022/01/22 00:47:49;;;;;;;1.63;1.05;;;;;;;;;;5074961;28;20461;-60
2022/01/22 00:50:17;;;;;;;2.10;1.08;;;;;;;;;;5075190;28;20025;-60
2022/01/22 00:52:44;;;;;;;2.45;1.02;;;;;;;;;;5069247;28;20021;-60
2022/01/22 00:55:11;;;;;;;3.15;1.25;;;;;;;;;;5055151;28;20025;-60
2022/01/22 00:57:37;;;;;;;1.90;1.30;;;;;;;;;;5055312;28;20029;-60
2022/01/22 01:00:05;;;;;;;2.55;1.00;;;;;;;;;;5055989;28;20451;-60
2022/01/22 01:02:31;;;;;;;3.20;1.00;;;;;;;;;;5071515;28;20390;-60
2022/01/22 01:04:57;;;;;;;2.55;1.10;;;;;;;;;;5055064;28;20124;-60
2022/01/22 01:07:23;;;;;;;2.08;0.90;;;;;;;;;;5054069;28;20076;-60
2022/01/22 01:09:49;;;;;;;1.80;0.93;;;;;;;;;;5053847;28;20028;-60
2022/01/22 01:12:15;;;;;;;2.47;0.90;;;;;;;;;;5056561;28;20493;-60
2022/01/22 01:14:48;;;;;;;1.20;0.90;;;;;;;;;;5074137;28;20028;-60
2022/01/22 01:17:47;;;;;;;2.13;0.88;;;;;;;;;;5060593;28;20087;-60
2022/01/22 01:36:27;;;;;;;2.05;0.90;;;;;;;;;;5070461;28;20029;-60
2022/01/22 01:38:57;;;;;;;1.92;1.15;;;;;;;;;;5054310;28;20510;-60
2022/01/22 01:44:16;;;;;;;2.95;1.10;;;;;;;;;;5057822;28;20119;-60
2022/01/22 01:46:43;;;;;;;2.35;1.25;;;;;;;;;;5070907;28;20390;-60
2022/01/22 01:49:09;;;;;;;1.40;0.88;;;;;;;;;;5053971;28;20029;-60
2022/01/22 01:51:36;;;;;;;1.90;1.02;;;;;;;;;;5052489;28;20062;-60
2022/01/22 01:54:14;;;;;;;2.28;1.00;;;;;;;;;;5054979;28;20466;-60
2022/01/22 01:59:24;;;;;;;1.02;0.80;;;;;;;;;;5053195;28;20425;-60
2022/01/22 02:01:51;;;;;;;1.40;0.80;;;;;;;;;;5054319;28;20052;-61
2022/01/22 02:04:17;;;;;;;1.65;0.77;;;;;;;;;;5054113;28;20074;-62
2022/01/22 02:06:43;;;;;;;2.67;1.17;;;;;;;;;;5053013;28;20028;-61
2022/01/22 02:09:10;;;;;;;2.22;0.90;;;;;;;;;;5054864;28;20035;-61
2022/01/22 02:11:38;;;;;;;1.38;0.73;;;;;;;;;;5053164;28;20381;-60
2022/01/22 02:23:30;;;;;;;1.65;0.77;;;;;;;;;;5053688;28;20013;-60
2022/01/22 02:25:04;;;;;;;2.03;0.70;;;;;;;;;;5059909;28;20648;-60
2022/01/22 02:27:32;;;;;;;0.80;0.60;;;;;;;;;;5055029;28;20048;-60
2022/01/22 02:29:58;;;;;;;1.73;0.95;;;;;;;;;;5054514;28;20025;-60
2022/01/22 02:34:57;;;;;;;2.13;1.42;;;;;;;;;;5053338;28;20458;-60
2022/01/22 02:37:29;;;;;;;1.40;0.80;;;;;;;;;;5072011;28;20056;-59
2022/01/22 02:40:04;;;;;;;2.42;0.65;;;;;;;;;;5072876;28;20098;-60
2022/01/22 02:42:34;;;;;;;1.02;0.70;;;;;;;;;;5072587;28;20028;-60
2022/01/22 02:45:00;;;;;;;1.85;1.00;;;;;;;;;;5071500;28;20029;-60
2022/01/22 02:47:26;;;;;;;2.78;0.98;;;;;;;;;;5052440;28;20033;-60
2022/01/22 02:49:52;;;;;;;1.67;1.10;;;;;;;;;;5052748;28;20017;-60
2022/01/22 02:52:19;;;;;;;1.10;0.65;;;;;;;;;;5052921;28;20040;-60
2022/01/22 02:54:46;;;;;;;0.90;0.65;;;;;;;;;;5052141;28;20021;-60
2022/01/22 02:57:13;;;;;;;1.23;0.60;;;;;;;;;;5071422;28;20122;-60
2022/01/22 02:59:40;;;;;;;0.95;0.75;;;;;;;;;;5071338;28;20027;-60
2022/01/22 03:02:06;;;;;;;2.10;1.35;;;;;;;;;;5072533;28;20496;-60
2022/01/22 03:04:32;;;;;;;1.48;0.90;;;;;;;;;;5072494;28;20445;-60
2022/01/22 03:06:58;;;;;;;1.40;0.77;;;;;;;;;;5055638;28;20032;-60
2022/01/22 03:09:30;;;;;;;0.70;0.65;;;;;;;;;;5051880;28;20079;-59
2022/01/22 03:20:19;;;;;;;1.63;0.88;;;;;;;;;;5072511;28;20500;-60
2022/01/22 03:27:51;;;;;;;0.70;0.50;;;;;;;;;;5072559;28;20031;-60
2022/01/22 03:30:18;;;;;;;1.35;0.80;;;;;;;;;;5072321;28;20485;-60
2022/01/22 03:32:48;;;;;;;1.63;0.77;;;;;;;;;;5071389;28;20082;-60
2022/01/22 03:37:41;;;;;;;1.33;0.63;;;;;;;;;;5071634;28;20082;-60
2022/01/22 03:40:08;;;;;;;0.70;0.60;;;;;;;;;;5066201;28;20406;-60
2022/01/22 03:42:35;;;;;;;1.33;0.63;;;;;;;;;;5068201;28;20434;-60
2022/01/22 03:45:01;;;;;;;1.17;0.80;;;;;;;;;;5068612;28;20021;-60
2022/01/22 03:47:27;;;;;;;2.05;0.80;;;;;;;;;;5051413;28;20432;-60
2022/01/22 03:49:53;;;;;;;2.08;0.80;;;;;;;;;;5060600;28;20100;-60
2022/01/22 03:52:19;;;;;;;1.23;0.65;;;;;;;;;;5072448;28;20025;-60
2022/01/22 03:54:45;;;;;;;0.95;0.80;;;;;;;;;;5067467;28;20096;-60
2022/01/22 03:57:11;;;;;;;1.30;0.60;;;;;;;;;;5052307;28;20040;-61
2022/01/22 03:59:37;;;;;;;0.93;0.85;;;;;;;;;;5033613;28;20036;-60
2022/01/22 04:02:37;;;;;;;1.33;0.93;;;;;;;;;;5052168;28;20043;-60
2022/01/22 04:04:57;;;;;;;0.70;0.60;;;;;;;;;;5067482;28;20033;-60
2022/01/22 04:10:09;;;;;;;1.67;0.73;;;;;;;;;;5052131;28;20029;-61
2022/01/22 04:13:21;;;;;;;1.10;0.60;;;;;;;;;;5051377;28;20025;-60
2022/01/22 04:15:28;;;;;;;2.00;1.13;;;;;;;;;;5048395;28;20075;-59
2022/01/22 04:29:03;;;;;;;1.05;0.70;;;;;;;;;;5062387;28;20112;-60
2022/01/22 04:31:29;;;;;;;0.85;0.65;;;;;;;;;;5061044;28;20103;-60
2022/01/22 04:33:55;;;;;;;2.00;0.80;;;;;;;;;;5050562;28;20025;-60
2022/01/22 04:36:21;;;;;;;0.95;0.75;;;;;;;;;;5062804;28;20036;-60
2022/01/22 04:38:47;;;;;;;1.20;0.70;;;;;;;;;;5067331;28;20052;-60
2022/01/22 04:41:13;;;;;;;2.42;1.00;;;;;;;;;;5051429;28;20025;-61
2022/01/22 04:43:41;;;;;;;1.33;0.80;;;;;;;;;;5050882;28;20470;-60
2022/01/22 04:48:49;;;;;;;1.20;0.63;;;;;;;;;;5074597;28;20135;-60
2022/01/22 04:57:04;;;;;;;1.40;0.80;;;;;;;;;;5032706;28;20450;-60
2022/01/22 04:59:30;;;;;;;1.38;0.80;;;;;;;;;;5031932;28;20168;-59
2022/01/22 05:01:56;;;;;;;0.80;0.80;;;;;;;;;;5052369;28;20090;-60
2022/01/22 05:04:23;;;;;;;1.25;0.90;;;;;;;;;;5075248;28;20450;-60
2022/01/22 05:06:49;;;;;;;0.90;0.60;;;;;;;;;;5056077;28;20040;-60
2022/01/22 05:09:14;;;;;;;0.85;0.70;;;;;;;;;;5055120;28;20083;-60
2022/01/22 05:11:40;;;;;;;1.35;0.93;;;;;;;;;;5054060;28;20387;-60
2022/01/22 05:14:06;;;;;;;1.08;0.70;;;;;;;;;;5054934;28;20025;-60
2022/01/22 05:16:33;;;;;;;1.90;0.80;;;;;;;;;;5072008;28;20497;-60
2022/01/22 05:19:09;;;;;;;1.02;0.70;;;;;;;;;;5074925;28;20115;-60
2022/01/22 05:21:38;;;;;;;1.08;0.70;;;;;;;;;;5073722;28;20362;-60
2022/01/22 05:24:08;;;;;;;2.05;0.82;;;;;;;;;;5073564;28;20445;-60
2022/01/22 05:39:28;;;;;;;1.02;0.70;;;;;;;;;;5054498;28;20094;-60
2022/01/22 05:41:54;;;;;;;1.25;0.82;;;;;;;;;;5053782;28;20021;-60
2022/01/22 05:44:20;;;;;;;0.80;0.80;;;;;;;;;;5055452;28;20394;-61
2022/01/22 05:46:48;;;;;;;1.38;0.77;;;;;;;;;;5069555;28;20040;-60
2022/01/22 05:49:14;;;;;;;1.20;0.70;;;;;;;;;;5061605;28;20020;-60
2022/01/22 05:51:42;;;;;;;0.75;0.50;;;;;;;;;;5061998;28;20020;-60
2022/01/22 05:54:31;;;;;;;0.70;0.60;;;;;;;;;;5063788;28;20055;-60
2022/01/22 05:59:42;;;;;;;0.65;0.57;;;;;;;;;;5060466;28;20075;-60
2022/01/22 06:02:16;;;;;;;1.30;0.70;;;;;;;;;;5062298;28;20569;-60
2022/01/22 06:04:43;;;;;;;2.13;0.80;;;;;;;;;;5061871;28;20032;-60
2022/01/22 06:07:09;;;;;;;1.25;0.77;;;;;;;;;;5061370;28;20078;-60
2022/01/22 06:09:39;;;;;;;2.30;0.70;;;;;;;;;;5062096;28;20021;-59
2022/01/22 06:14:34;;;;;;;1.90;0.98;;;;;;;;;;5061150;28;20032;-60
2022/01/22 06:17:00;;;;;;;2.05;1.02;;;;;;;;;;5062832;28;20366;-60
2022/01/22 06:19:26;;;;;;;1.30;0.90;;;;;;;;;;5061152;28;20061;-61
2022/01/22 06:21:53;;;;;;;3.50;1.17;;;;;;;;;;5062379;28;20462;-60
2022/01/22 06:24:20;;;;;;;1.60;0.90;;;;;;;;;;5060612;28;20363;-60
2022/01/22 06:26:46;;;;;;;2.38;0.90;;;;;;;;;;5051805;28;20025;-60
2022/01/22 06:29:12;;;;;;;1.10;0.70;;;;;;;;;;5052287;28;20058;-61
2022/01/22 06:31:38;;;;;;;1.00;0.70;;;;;;;;;;5051420;28;20371;-60
2022/01/22 06:34:05;;;;;;;0.65;0.60;;;;;;;;;;5052709;28;20024;-60
2022/01/22 06:36:31;;;;;;;0.77;0.60;;;;;;;;;;5051320;28;20021;-60
2022/01/22 06:39:10;;;;;;;1.02;0.73;;;;;;;;;;5051949;28;20064;-60
2022/01/22 06:41:45;;;;;;;0.90;0.60;;;;;;;;;;5067933;28;20030;-60
2022/01/22 06:44:22;;;;;;;1.45;0.90;;;;;;;;;;5069783;28;20035;-61
2022/01/22 06:46:50;;;;;;;1.20;0.50;;;;;;;;;;5069783;28;20078;-60
2022/01/22 06:49:16;;;;;;;1.77;0.77;;;;;;;;;;5053497;28;20035;-60
2022/01/22 06:51:42;;;;;;;2.33;1.17;;;;;;;;;;5051609;28;20473;-60
2022/01/22 06:54:10;;;;;;;1.20;0.80;;;;;;;;;;5052897;28;20378;-60
2022/01/22 06:56:36;;;;;;;0.93;0.70;;;;;;;;;;5060358;28;20040;-60
2022/01/22 06:59:02;;;;;;;1.98;0.80;;;;;;;;;;5063195;28;20068;-60
2022/01/22 07:01:29;;;;;;;1.30;0.80;;;;;;;;;;5064953;28;20017;-60
2022/01/22 07:03:55;;;;;;;1.13;0.77;;;;;;;;;;5060549;28;20028;-60
2022/01/22 07:06:22;;;;;;;1.10;0.60;;;;;;;;;;5063738;28;20111;-60
2022/01/22 07:08:48;;;;;;;1.25;0.70;;;;;;;;;;5053850;28;20039;-60
2022/01/22 07:11:14;;;;;;;1.83;0.70;;;;;;;;;;5056159;28;20414;-60
2022/01/22 07:13:40;;;;;;;1.52;0.90;;;;;;;;;;5058243;28;20070;-60
2022/01/22 07:16:07;;;;;;;3.15;1.30;;;;;;;;;;5060723;28;20029;-60
2022/01/22 07:18:33;;;;;;;1.45;1.05;;;;;;;;;;5055433;28;20199;-60
2022/01/22 07:21:03;;;;;;;1.63;1.00;;;;;;;;;;5059556;28;20021;-60
2022/01/22 07:26:01;;;;;;;1.90;1.15;;;;;;;;;;5060371;28;20492;-60
2022/01/22 07:28:27;;;;;;;1.83;0.85;;;;;;;;;;5061110;28;20029;-60
2022/01/22 07:30:53;;;;;;;1.20;0.70;;;;;;;;;;5059162;28;20019;-60
2022/01/22 07:33:20;;;;;;;1.10;0.70;;;;;;;;;;5059668;28;20016;-60
2022/01/22 07:35:47;;;;;;;1.88;0.80;;;;;;;;;;5060802;28;20043;-58
2022/01/22 07:38:14;;;;;;;1.77;0.75;;;;;;;;;;5057818;28;20041;-59
2022/01/22 07:40:42;;;;;;;1.75;1.08;;;;;;;;;;5059737;28;20094;-59
2022/01/22 07:43:08;;;;;;;2.15;0.93;;;;;;;;;;5060616;28;20090;-59
2022/01/22 07:45:34;;;;;;;2.33;0.90;;;;;;;;;;5059148;28;20052;-60
2022/01/22 07:48:00;;;;;;;2.28;1.20;;;;;;;;;;5059323;28;20044;-61
2022/01/22 07:50:26;;;;;;;2.05;1.02;;;;;;;;;;5059187;28;20625;-61
2022/01/22 07:52:52;;;;;;;2.75;0.82;;;;;;;;;;5059970;28;20016;-62
2022/01/22 07:55:21;;;;;;;2.65;0.90;;;;;;;;;;5060593;28;20366;-63
2022/01/22 07:57:47;;;;;;;1.27;0.80;;;;;;;;;;5057180;28;20036;-64
2022/01/22 08:00:14;;;;;;;2.70;0.82;;;;;;;;;;5056209;28;20029;-64
2022/01/22 08:02:40;;;;;;;3.85;1.10;;;;;;;;;;5059486;28;20020;-61
2022/01/22 08:05:07;;;;;;;3.83;0.90;;;;;;;;;;5056398;28;20032;-59
2022/01/22 08:07:33;;;;;;;3.20;1.60;;;;;;;;;;5055815;28;20455;-58
2022/01/22 08:09:59;;;;;;;2.20;0.70;;;;;;;;;;5059865;28;20032;-60
2022/01/22 08:12:25;;;;;;;4.22;1.08;;;;;;;;;;5057200;28;20069;-59
2022/01/22 08:14:52;;;;;;;2.38;1.02;;;;;;;;;;5058658;28;20029;-60
2022/01/22 08:17:18;;;;;;;1.90;0.88;;;;;;;;;;5064911;28;20238;-61
2022/01/22 08:19:44;;;;;;;1.98;1.02;;;;;;;;;;5038576;28;20112;-62
2022/01/22 08:22:10;;;;;;;1.30;0.70;;;;;;;;;;5059314;28;20024;-60
2022/01/22 08:24:37;;;;;;;1.95;1.00;;;;;;;;;;5060383;28;20489;-59
2022/01/22 08:27:13;;;;;;;1.55;0.77;;;;;;;;;;5063649;28;20051;-60
2022/01/22 08:29:39;;;;;;;1.13;0.68;;;;;;;;;;5061920;28;20583;-59
2022/01/22 08:32:22;;;;;;;1.35;0.68;;;;;;;;;;5062393;28;20466;-59
2022/01/22 08:37:33;;;;;;;1.27;0.90;;;;;;;;;;5059630;28;20575;-57
2022/01/22 08:40:00;;;;;;;3.72;0.65;;;;;;;;;;5054933;28;20033;-58
2022/01/22 08:42:27;;;;;;;4.35;0.95;;;;;;;;;;5055789;28;20028;-58
2022/01/22 08:44:54;;;;;;;2.03;0.82;;;;;;;;;;5065008;28;20059;-49
2022/01/22 08:47:21;;;;;;;1.50;0.65;;;;;;;;;;5074912;28;20020;-59
2022/01/22 08:49:47;;;;;;;1.77;0.65;;;;;;;;;;5074740;28;20071;-59
2022/01/22 08:52:15;;;;;;;1.50;0.90;;;;;;;;;;5072062;28;20016;-58
2022/01/22 08:54:42;;;;;;;2.78;0.98;;;;;;;;;;5045239;28;20388;-62
2022/01/22 08:57:08;;;;;;;1.35;0.90;;;;;;;;;;5074694;28;20094;-48
2022/01/22 08:59:34;;;;;;;2.22;0.68;;;;;;;;;;5067435;28;20120;-60
2022/01/22 09:02:00;;;;;;;1.17;0.60;;;;;;;;;;5054968;28;20442;-59
2022/01/22 09:04:27;;;;;;;0.40;0.38;;;;;;;;;;5042865;28;20059;-59
2022/01/22 09:06:53;;;;;;;3.72;1.35;;;;;;;;;;5069803;28;20474;-62
2022/01/22 09:09:19;;;;;;;3.80;0.85;;;;;;;;;;5072030;28;20028;-61
2022/01/22 09:11:45;;;;;;;1.85;0.75;;;;;;;;;;5054149;28;20033;-61
2022/01/22 09:14:13;;;;;;;2.58;0.70;;;;;;;;;;5058162;28;20074;-62
2022/01/22 09:16:45;;;;;;;1.02;0.50;;;;;;;;;;5074830;28;20056;-60
2022/01/22 09:19:14;;;;;;;2.08;0.70;;;;;;;;;;5075444;28;20024;-61
2022/01/22 09:21:44;;;;;;;4.32;0.63;;;;;;;;;;5073607;28;20037;-59
2022/01/22 09:24:12;;;;;;;3.17;0.63;;;;;;;;;;5071457;28;20116;-61
2022/01/22 09:26:38;;;;;;;2.58;0.65;;;;;;;;;;5056399;28;20044;-60
2022/01/22 09:29:05;;;;;;;3.63;0.90;;;;;;;;;;5066058;28;20032;-60
2022/01/22 09:31:32;;;;;;;1.80;0.50;;;;;;;;;;5060878;28;20021;-60
2022/01/22 09:33:59;;;;;;;2.38;0.70;;;;;;;;;;5073698;28;20354;-53
2022/01/22 09:36:26;;;;;;;2.15;0.70;;;;;;;;;;5074489;28;20025;-62
2022/01/22 09:38:53;;;;;;;2.97;0.68;;;;;;;;;;5073257;28;20478;-55
2022/01/22 09:41:19;;;;;;;1.40;0.73;;;;;;;;;;5068786;28;20021;-62
2022/01/22 09:43:45;;;;;;;2.63;0.75;;;;;;;;;;5052462;28;20351;-57
2022/01/22 09:46:12;;;;;;;2.25;0.68;;;;;;;;;;5053999;28;20036;-53
2022/01/22 09:48:42;;;;;;;7.03;1.38;;;;;;;;;;5053109;28;20478;-55
2022/01/22 09:51:08;;;;;;;1.15;0.70;;;;;;;;;;5062070;28;20493;-54
2022/01/22 09:53:35;;;;;;;1.85;0.88;;;;;;;;;;5065289;28;20016;-66
2022/01/22 09:56:01;;;;;;;1.65;0.65;;;;;;;;;;5074415;28;20116;-57
2022/01/22 09:58:27;;;;;;;1.35;0.70;;;;;;;;;;5074104;28;20063;-54
2022/01/22 10:00:53;;;;;;;1.73;0.60;;;;;;;;;;5059520;28;20108;-57
2022/01/22 10:03:20;;;;;;;2.15;1.02;;;;;;;;;;5057664;28;20370;-55
2022/01/22 10:05:47;;;;;;;1.60;0.75;;;;;;;;;;5054068;28;20056;-53
2022/01/22 10:08:17;;;;;;;1.30;0.70;;;;;;;;;;5053776;28;20029;-55
2022/01/22 10:10:43;;;;;;;2.50;0.80;;;;;;;;;;5052922;28;20033;-53
2022/01/22 10:13:09;;;;;;;2.92;0.70;;;;;;;;;;5053923;28;20067;-55
2022/01/22 10:15:35;;;;;;;1.40;0.63;;;;;;;;;;5061464;28;20031;-64
2022/01/22 10:18:02;;;;;;;2.28;0.80;;;;;;;;;;5073626;28;20060;-54
2022/01/22 10:20:28;;;;;;;2.03;0.60;;;;;;;;;;5066053;28;20033;-54
2022/01/22 10:22:55;;;;;;;1.63;0.77;;;;;;;;;;5069589;28;20021;-55
2022/01/22 10:25:27;;;;;;;1.58;0.82;;;;;;;;;;5061716;28;20017;-53
2022/01/22 10:28:18;;;;;;;2.03;0.90;;;;;;;;;;5052676;28;20474;-56
2022/01/22 10:30:45;;;;;;;0.80;0.60;;;;;;;;;;5052200;28;20040;-56
2022/01/22 10:35:48;;;;;;;2.30;0.63;;;;;;;;;;5074258;28;20028;-56
2022/01/22 10:38:16;;;;;;;3.17;0.95;;;;;;;;;;5072848;28;20082;-47
2022/01/22 10:40:42;;;;;;;1.77;0.70;;;;;;;;;;5072330;28;20027;-46
2022/01/22 10:43:12;;;;;;;0.93;0.70;;;;;;;;;;5053739;28;20386;-46
2022/01/22 10:45:41;;;;;;;0.52;0.40;;;;;;;;;;5052458;28;20017;-46
2022/01/22 10:48:14;;;;;;;2.22;0.73;;;;;;;;;;5052926;28;20025;-47
2022/01/22 10:50:40;;;;;;;3.17;0.88;;;;;;;;;;5052179;28;20017;-45
2022/01/22 10:53:06;;;;;;;3.22;0.85;;;;;;;;;;5069804;28;20440;-46
2022/01/22 10:55:32;;;;;;;1.15;0.60;;;;;;;;;;5068639;28;20031;-46
2022/01/22 10:58:07;;;;;;;1.42;0.77;;;;;;;;;;5071694;28;20389;-46
2022/01/22 11:00:34;;;;;;;1.23;0.70;;;;;;;;;;5072246;28;20028;-48
2022/01/22 11:03:18;;;;;;;1.77;0.80;;;;;;;;;;5055122;28;20021;-46
2022/01/22 11:05:44;;;;;;;1.50;0.63;;;;;;;;;;5060926;28;20032;-45
2022/01/22 11:08:14;;;;;;;3.38;0.55;;;;;;;;;;5072227;28;20066;-45
2022/01/22 11:10:49;;;;;;;2.25;0.80;;;;;;;;;;5071532;28;20093;-45
2022/01/22 11:13:15;;;;;;;1.15;0.65;;;;;;;;;;5071056;28;20032;-48
2022/01/22 11:15:43;;;;;;;1.20;0.60;;;;;;;;;;5071553;28;20144;-47
2022/01/22 11:18:13;;;;;;;0.63;0.50;;;;;;;;;;5072735;28;20465;-48
2022/01/22 11:20:40;;;;;;;0.55;0.40;;;;;;;;;;5071692;28;20028;-47
2022/01/22 11:23:07;;;;;;;1.50;0.60;;;;;;;;;;5055558;28;20082;-46
2022/01/22 11:25:34;;;;;;;1.30;0.80;;;;;;;;;;5065587;28;20021;-45
2022/01/22 11:28:01;;;;;;;1.20;0.70;;;;;;;;;;5071858;28;20111;-54
2022/01/22 11:30:28;;;;;;;0.57;0.50;;;;;;;;;;5071610;28;20448;-50
2022/01/22 11:33:05;;;;;;;0.80;0.60;;;;;;;;;;5057516;28;20040;-57
2022/01/22 11:35:37;;;;;;;1.10;0.80;;;;;;;;;;5051920;28;20390;-50
2022/01/22 11:38:16;;;;;;;2.13;0.68;;;;;;;;;;5051910;28;20048;-53
2022/01/22 11:40:43;;;;;;;1.90;0.70;;;;;;;;;;5063043;28;20028;-51
2022/01/22 11:43:12;;;;;;;0.88;0.45;;;;;;;;;;5055735;28;20032;-48
2022/01/22 11:45:43;;;;;;;1.02;0.70;;;;;;;;;;5051822;28;20021;-63
2022/01/22 11:48:12;;;;;;;1.00;0.60;;;;;;;;;;5054022;28;20031;-53
2022/01/22 11:50:38;;;;;;;1.02;0.60;;;;;;;;;;5057178;28;20036;-63
2022/01/22 11:53:23;;;;;;;0.95;0.47;;;;;;;;;;5066647;28;20029;-51
2022/01/22 11:56:07;;;;;;;0.88;0.40;;;;;;;;;;5063123;28;20029;-46
2022/01/22 11:58:54;;;;;;;1.45;1.27;;;;;;;;;;5056069;28;20064;-51
2022/01/22 12:02:02;;;;;;;2.85;0.73;;;;;;;;;;5041223;28;20047;-58
2022/01/22 12:04:25;;;;;;;0.93;0.50;;;;;;;;;;5057778;28;20033;-51
2022/01/22 12:07:03;;;;;;;2.20;0.60;;;;;;;;;;5055463;28;20107;-54
2022/01/22 12:09:32;;;;;;;2.25;0.70;;;;;;;;;;5058816;28;20020;-53
2022/01/22 12:14:51;;;;;;;0.82;0.60;;;;;;;;;;5055417;28;20033;-54
2022/01/22 12:17:24;;;;;;;1.50;0.90;;;;;;;;;;5075924;28;20029;-53
2022/01/22 12:20:05;;;;;;;0.52;0.40;;;;;;;;;;5066547;28;20060;-52
2022/01/22 12:22:47;;;;;;;2.30;0.50;;;;;;;;;;5065098;28;20036;-48
2022/01/22 12:25:13;;;;;;;0.95;0.50;;;;;;;;;;5065387;28;20469;-48
2022/01/22 12:27:49;;;;;;;0.80;0.47;;;;;;;;;;5056290;28;20104;-50
2022/01/22 12:30:16;;;;;;;0.75;0.35;;;;;;;;;;5071464;28;20073;-54
2022/01/22 12:32:49;;;;;;;0.40;0.40;;;;;;;;;;5046260;28;20017;-55
2022/01/22 12:35:17;;;;;;;1.40;0.50;;;;;;;;;;5055301;28;20501;-54
2022/01/22 12:37:48;;;;;;;1.13;0.50;;;;;;;;;;5054516;28;20466;-57
2022/01/22 12:40:26;;;;;;;0.85;0.60;;;;;;;;;;5037789;28;20035;-57
2022/01/22 12:43:04;;;;;;;1.33;0.68;;;;;;;;;;5054835;28;20115;-59
2022/01/22 12:45:30;;;;;;;4.65;0.47;;;;;;;;;;5065643;28;20508;-57
2022/01/22 12:47:57;;;;;;;0.68;0.45;;;;;;;;;;5074649;28;20359;-50
2022/01/22 12:50:24;;;;;;;0.98;0.45;;;;;;;;;;5056320;28;20047;-65
2022/01/22 12:52:51;;;;;;;0.82;0.60;;;;;;;;;;5063209;28;20024;-58
2022/01/22 12:55:26;;;;;;;0.93;0.70;;;;;;;;;;5055138;28;20032;-58
2022/01/22 12:57:52;;;;;;;0.60;0.40;;;;;;;;;;5036307;28;20419;-57
2022/01/22 13:00:20;;;;;;;0.55;0.47;;;;;;;;;;5068444;28;20086;-56
2022/01/22 13:02:47;;;;;;;1.15;0.70;;;;;;;;;;5068689;28;20051;-58
2022/01/22 13:05:15;;;;;;;1.20;0.60;;;;;;;;;;5054880;28;20036;-57
2022/01/22 13:07:43;;;;;;;3.60;0.57;;;;;;;;;;5053272;28;20120;-58
2022/01/22 13:10:10;;;;;;;2.08;0.70;;;;;;;;;;5054655;28;20390;-54
2022/01/22 13:12:37;;;;;;;3.20;1.23;;;;;;;;;;5063301;28;20121;-53
2022/01/22 13:15:04;;;;;;;4.07;0.95;;;;;;;;;;5074255;28;20024;-48
2022/01/22 13:17:31;;;;;;;2.67;1.58;;;;;;;;;;5074748;28;20478;-51
2022/01/22 13:19:58;;;;;;;1.40;1.17;;;;;;;;;;5072344;28;20020;-53
2022/01/22 13:22:34;;;;;;;8.13;2.03;;;;;;;;;;5036605;28;20025;-52
2022/01/22 13:25:05;;;;;;;3.05;1.42;;;;;;;;;;5062844;28;20343;-53
2022/01/22 13:27:32;;;;;;;2.65;1.63;;;;;;;;;;5074571;28;20518;-52
2022/01/22 13:29:58;;;;;;;3.70;1.35;;;;;;;;;;5057806;28;20407;-54
2022/01/22 13:32:48;;;;;;;2.63;1.30;;;;;;;;;;5093103;28;20035;-49
2022/01/22 13:49:01;;;;;;;1.85;0.95;;;;;;;;;;5053299;28;20465;-53
2022/01/22 13:51:28;;;;;;;1.33;0.90;;;;;;;;;;5064628;28;20436;-52
2022/01/22 13:53:55;;;;;;;2.42;1.40;;;;;;;;;;5072803;28;20030;-50
2022/01/22 13:56:41;;;;;;;2.40;1.05;;;;;;;;;;5073153;28;20028;-49
2022/01/22 13:59:14;;;;;;;1.40;1.23;;;;;;;;;;5073230;28;20043;-52
2022/01/22 14:01:50;;;;;;;1.75;1.15;;;;;;;;;;5061786;28;20108;-51
2022/01/22 14:04:16;;;;;;;1.80;0.82;;;;;;;;;;5053889;28;20379;-54
2022/01/22 14:06:43;;;;;;;3.65;0.98;;;;;;;;;;5053665;28;20104;-61
2022/01/22 14:09:19;;;;;;;1.88;1.08;;;;;;;;;;5053581;28;20107;-47
2022/01/22 14:12:03;;;;;;;1.60;0.98;;;;;;;;;;5052923;28;20075;-50
2022/01/22 14:14:33;;;;;;;2.65;1.00;;;;;;;;;;5070789;28;20191;-52
2022/01/22 14:17:13;;;;;;;1.70;0.70;;;;;;;;;;5072550;28;20104;-47
2022/01/22 14:19:39;;;;;;;2.30;1.20;;;;;;;;;;5073539;28;20029;-49
2022/01/22 14:22:05;;;;;;;1.92;0.93;;;;;;;;;;5071907;28;20042;-49
2022/01/22 14:24:32;;;;;;;2.10;0.95;;;;;;;;;;5057654;28;20397;-53
2022/01/22 14:26:58;;;;;;;2.15;0.80;;;;;;;;;;5053288;28;20521;-49
2022/01/22 14:29:24;;;;;;;1.55;0.80;;;;;;;;;;5053849;28;20029;-49
2022/01/22 14:31:50;;;;;;;3.67;0.93;;;;;;;;;;5062201;28;20036;-48
2022/01/22 14:34:33;;;;;;;1.70;0.90;;;;;;;;;;5072971;28;20032;-49
2022/01/22 14:36:59;;;;;;;1.67;0.70;;;;;;;;;;5070879;28;20028;-53
2022/01/22 14:39:40;;;;;;;1.58;0.70;;;;;;;;;;5072681;28;20083;-50
2022/01/22 14:44:54;;;;;;;1.65;0.90;;;;;;;;;;5072194;28;20607;-51
2022/01/22 14:47:21;;;;;;;0.52;0.50;;;;;;;;;;5065503;28;20491;-51
2022/01/22 14:49:51;;;;;;;3.35;1.00;;;;;;;;;;5052447;28;20370;-55
2022/01/22 14:52:19;;;;;;;3.50;1.00;;;;;;;;;;5053041;28;20071;-54
2022/01/22 14:54:47;;;;;;;1.42;1.05;;;;;;;;;;5052351;28;20366;-55
2022/01/22 14:57:14;;;;;;;1.45;0.80;;;;;;;;;;5052979;28;20029;-55
2022/01/22 14:59:42;;;;;;;1.00;0.75;;;;;;;;;;5060497;28;20036;-56
2022/01/22 15:02:09;;;;;;;1.58;0.77;;;;;;;;;;5063399;28;20028;-55
2022/01/22 15:04:36;;;;;;;1.33;0.80;;;;;;;;;;5052550;28;20068;-55
2022/01/22 15:07:04;;;;;;;3.30;1.15;;;;;;;;;;5056573;28;20021;-50
2022/01/22 15:09:31;;;;;;;1.10;0.80;;;;;;;;;;5072503;28;20025;-56
2022/01/22 15:11:58;;;;;;;0.80;0.65;;;;;;;;;;5063028;28;20033;-54
2022/01/22 15:14:26;;;;;;;1.17;0.70;;;;;;;;;;5059924;28;20425;-54
2022/01/22 15:17:14;;;;;;;2.28;1.20;;;;;;;;;;5063424;28;20064;-58
2022/01/22 15:19:40;;;;;;;1.40;0.55;;;;;;;;;;5072642;28;20432;-54
2022/01/22 15:22:10;;;;;;;4.82;0.90;;;;;;;;;;5060368;28;20040;-58
2022/01/22 15:24:37;;;;;;;1.73;0.80;;;;;;;;;;5061247;28;20029;-61
2022/01/22 15:27:03;;;;;;;2.95;0.90;;;;;;;;;;5053118;28;20025;-53
2022/01/22 15:29:30;;;;;;;1.42;0.98;;;;;;;;;;5059915;28;20100;-53
2022/01/22 15:36:56;;;;;;;1.13;0.60;;;;;;;;;;5061284;28;20033;-53
2022/01/22 15:39:23;;;;;;;1.95;0.63;;;;;;;;;;5068197;28;20473;-59
2022/01/22 15:41:49;;;;;;;1.63;0.80;;;;;;;;;;5070721;28;20044;-58
2022/01/22 15:44:15;;;;;;;1.40;0.75;;;;;;;;;;5072544;28;20386;-57
2022/01/22 15:46:44;;;;;;;1.13;0.50;;;;;;;;;;5060963;28;20022;-58
2022/01/22 15:49:14;;;;;;;1.02;0.75;;;;;;;;;;5062840;28;20396;-57
2022/01/22 15:51:42;;;;;;;1.40;1.10;;;;;;;;;;5056282;28;20037;-56
2022/01/22 15:54:08;;;;;;;2.60;1.00;;;;;;;;;;5061750;28;20021;-58
2022/01/22 15:56:36;;;;;;;1.40;0.90;;;;;;;;;;5060479;28;20096;-57
2022/01/22 15:59:02;;;;;;;2.35;0.90;;;;;;;;;;5043856;28;20025;-56
2022/01/22 16:01:28;;;;;;;0.77;0.70;;;;;;;;;;5060004;28;20017;-58
2022/01/22 16:03:57;;;;;;;1.13;0.73;;;;;;;;;;5060286;28;20031;-55
2022/01/22 16:06:33;;;;;;;2.92;0.95;;;;;;;;;;5043031;28;20013;-57
2022/01/22 16:08:59;;;;;;;3.35;1.05;;;;;;;;;;5060469;28;20017;-59
2022/01/22 16:11:25;;;;;;;1.73;1.08;;;;;;;;;;5061365;28;20083;-57
2022/01/22 16:13:51;;;;;;;1.25;0.80;;;;;;;;;;5062067;28;20040;-59
2022/01/22 16:16:17;;;;;;;1.05;0.95;;;;;;;;;;5060364;28;20053;-57
2022/01/22 16:18:43;;;;;;;1.30;0.82;;;;;;;;;;5060032;28;20111;-58
2022/01/22 16:21:09;;;;;;;1.20;0.80;;;;;;;;;;5057854;28;20447;-56
2022/01/22 16:23:35;;;;;;;1.88;1.00;;;;;;;;;;5060167;28;20021;-55
2022/01/22 16:26:01;;;;;;;3.63;0.90;;;;;;;;;;5055011;28;20029;-56
2022/01/22 16:28:28;;;;;;;3.30;0.90;;;;;;;;;;5051691;28;20090;-59
2022/01/22 16:30:54;;;;;;;3.60;1.02;;;;;;;;;;5051420;28;20377;-59
2022/01/22 16:33:20;;;;;;;3.30;1.00;;;;;;;;;;5065285;28;20025;-59
2022/01/22 16:35:51;;;;;;;4.68;0.82;;;;;;;;;;5071748;28;20025;-59
2022/01/22 16:38:18;;;;;;;3.67;1.05;;;;;;;;;;5070671;28;20041;-59
2022/01/22 16:40:44;;;;;;;2.58;0.80;;;;;;;;;;5072677;28;20090;-58
2022/01/22 16:43:10;;;;;;;1.45;0.93;;;;;;;;;;5074278;28;20063;-59
2022/01/22 16:56:23;;;;;;;1.65;0.90;;;;;;;;;;5061931;28;20023;-59
2022/01/22 16:58:51;;;;;;;2.97;1.10;;;;;;;;;;5074822;28;20368;-60
2022/01/22 17:01:33;;;;;;;11.40;2.30;;;;;;;;;;5068759;28;20267;-59
2022/01/22 17:03:59;;;;;;;3.22;1.23;;;;;;;;;;5054405;28;20115;-59
2022/01/22 17:06:25;;;;;;;1.90;1.20;;;;;;;;;;5055131;28;20047;-60